sensor_id;sensor_type;location;lat;lon;timestamp;P1;durP1;ratioP1;P2;durP2;ratioP2
45490;SDS011;31237;45.586;13.782;2024-03-08T00:01:59;7.55;;;4.50;;
45490;SDS011;31237;45.586;13.782;2024-03-08T00:04:25;9.07;;;5.20;;
45490;SDS011;31237;45.586;13.782;2024-03-08T00:06:51;8.13;;;4.90;;
45490;SDS011;31237;45.586;13.782;2024-03-08T00:09:17;9.25;;;5.20;;
45490;SDS011;31237;45.586;13.782;2024-03-08T00:11:43;7.05;;;4.80;;
45490;SDS011;31237;45.586;13.782;2024-03-08T00:14:08;7.05;;;5.00;;
45490;SDS011;31237;45.586;13.782;2024-03-08T00:16:34;8.20;;;5.00;;
45490;SDS011;31237;45.586;13.782;2024-03-08T00:19:00;9.55;;;5.57;;
45490;SDS011;31237;45.586;13.782;2024-03-08T00:21:26;9.48;;;5.35;;
45490;SDS011;31237;45.586;13.782;2024-03-08T00:23:52;8.48;;;5.10;;
45490;SDS011;31237;45.586;13.782;2024-03-08T00:26:20;7.97;;;5.35;;
45490;SDS011;31237;45.586;13.782;2024-03-08T00:28:47;8.57;;;4.90;;
45490;SDS011;31237;45.586;13.782;2024-03-08T00:31:14;8.10;;;5.55;;
45490;SDS011;31237;45.586;13.782;2024-03-08T00:33:42;9.35;;;5.65;;
45490;SDS011;31237;45.586;13.782;2024-03-08T00:36:08;9.05;;;5.45;;
45490;SDS011;31237;45.586;13.782;2024-03-08T00:38:34;7.32;;;5.03;;
45490;SDS011;31237;45.586;13.782;2024-03-08T00:41:00;7.55;;;4.82;;
45490;SDS011;31237;45.586;13.782;2024-03-08T00:43:25;8.50;;;5.18;;
45490;SDS011;31237;45.586;13.782;2024-03-08T00:45:51;8.20;;;5.00;;
45490;SDS011;31237;45.586;13.782;2024-03-08T00:48:17;7.80;;;5.40;;
45490;SDS011;31237;45.586;13.782;2024-03-08T00:50:43;7.90;;;4.95;;
45490;SDS011;31237;45.586;13.782;2024-03-08T00:53:11;7.78;;;5.07;;
45490;SDS011;31237;45.586;13.782;2024-03-08T00:55:38;6.72;;;4.20;;
45490;SDS011;31237;45.586;13.782;2024-03-08T00:58:04;10.07;;;5.55;;
45490;SDS011;31237;45.586;13.782;2024-03-08T01:00:30;8.35;;;4.70;;
45490;SDS011;31237;45.586;13.782;2024-03-08T01:02:56;8.23;;;5.13;;
45490;SDS011;31237;45.586;13.782;2024-03-08T01:05:21;7.18;;;5.07;;
45490;SDS011;31237;45.586;13.782;2024-03-08T01:07:49;7.65;;;4.97;;
45490;SDS011;31237;45.586;13.782;2024-03-08T01:10:15;6.63;;;4.32;;
45490;SDS011;31237;45.586;13.782;2024-03-08T01:12:41;6.88;;;4.43;;
45490;SDS011;31237;45.586;13.782;2024-03-08T01:15:08;8.27;;;4.40;;
45490;SDS011;31237;45.586;13.782;2024-03-08T01:17:35;7.05;;;4.50;;
45490;SDS011;31237;45.586;13.782;2024-03-08T01:20:01;7.70;;;4.50;;
45490;SDS011;31237;45.586;13.782;2024-03-08T01:22:28;8.23;;;5.15;;
45490;SDS011;31237;45.586;13.782;2024-03-08T01:24:55;6.80;;;4.60;;
45490;SDS011;31237;45.586;13.782;2024-03-08T01:27:21;8.63;;;4.93;;
45490;SDS011;31237;45.586;13.782;2024-03-08T01:29:47;7.95;;;5.13;;
45490;SDS011;31237;45.586;13.782;2024-03-08T01:32:13;5.97;;;4.25;;
45490;SDS011;31237;45.586;13.782;2024-03-08T01:34:39;8.90;;;4.93;;
45490;SDS011;31237;45.586;13.782;2024-03-08T01:37:05;8.27;;;4.72;;
45490;SDS011;31237;45.586;13.782;2024-03-08T01:39:31;7.78;;;4.72;;
45490;SDS011;31237;45.586;13.782;2024-03-08T01:41:57;7.07;;;5.00;;
45490;SDS011;31237;45.586;13.782;2024-03-08T01:44:23;6.90;;;4.53;;
45490;SDS011;31237;45.586;13.782;2024-03-08T01:46:50;9.38;;;5.32;;
45490;SDS011;31237;45.586;13.782;2024-03-08T01:49:18;7.25;;;5.05;;
45490;SDS011;31237;45.586;13.782;2024-03-08T01:51:46;7.00;;;4.15;;
45490;SDS011;31237;45.586;13.782;2024-03-08T01:54:13;7.15;;;4.70;;
45490;SDS011;31237;45.586;13.782;2024-03-08T01:56:41;9.25;;;5.00;;
45490;SDS011;31237;45.586;13.782;2024-03-08T01:59:08;6.32;;;4.50;;
45490;SDS011;31237;45.586;13.782;2024-03-08T02:01:34;8.15;;;4.80;;
45490;SDS011;31237;45.586;13.782;2024-03-08T02:04:00;6.93;;;4.80;;
45490;SDS011;31237;45.586;13.782;2024-03-08T02:06:26;8.77;;;5.45;;
45490;SDS011;31237;45.586;13.782;2024-03-08T02:08:52;7.05;;;4.63;;
45490;SDS011;31237;45.586;13.782;2024-03-08T02:11:18;9.30;;;4.47;;
45490;SDS011;31237;45.586;13.782;2024-03-08T02:13:45;6.50;;;4.15;;
45490;SDS011;31237;45.586;13.782;2024-03-08T02:16:11;7.80;;;4.65;;
45490;SDS011;31237;45.586;13.782;2024-03-08T02:18:37;7.15;;;4.63;;
45490;SDS011;31237;45.586;13.782;2024-03-08T02:21:04;7.10;;;4.60;;
45490;SDS011;31237;45.586;13.782;2024-03-08T02:23:31;7.43;;;4.70;;
45490;SDS011;31237;45.586;13.782;2024-03-08T02:25:58;6.53;;;4.20;;
45490;SDS011;31237;45.586;13.782;2024-03-08T02:28:24;7.85;;;4.60;;
45490;SDS011;31237;45.586;13.782;2024-03-08T02:30:50;6.20;;;4.00;;
45490;SDS011;31237;45.586;13.782;2024-03-08T02:33:19;7.35;;;4.97;;
45490;SDS011;31237;45.586;13.782;2024-03-08T02:35:46;7.22;;;4.50;;
45490;SDS011;31237;45.586;13.782;2024-03-08T02:38:16;8.02;;;5.07;;
45490;SDS011;31237;45.586;13.782;2024-03-08T02:40:44;7.75;;;4.75;;
45490;SDS011;31237;45.586;13.782;2024-03-08T02:43:11;6.93;;;4.60;;
45490;SDS011;31237;45.586;13.782;2024-03-08T02:45:38;8.32;;;4.55;;
45490;SDS011;31237;45.586;13.782;2024-03-08T02:48:04;7.15;;;4.05;;
45490;SDS011;31237;45.586;13.782;2024-03-08T02:50:33;9.38;;;4.55;;
45490;SDS011;31237;45.586;13.782;2024-03-08T02:53:04;6.15;;;4.00;;
45490;SDS011;31237;45.586;13.782;2024-03-08T02:55:30;6.53;;;3.95;;
45490;SDS011;31237;45.586;13.782;2024-03-08T02:57:56;6.63;;;4.18;;
45490;SDS011;31237;45.586;13.782;2024-03-08T03:00:22;8.43;;;4.07;;
45490;SDS011;31237;45.586;13.782;2024-03-08T03:02:49;6.25;;;4.15;;
45490;SDS011;31237;45.586;13.782;2024-03-08T03:05:25;5.85;;;4.10;;
45490;SDS011;31237;45.586;13.782;2024-03-08T03:07:51;7.40;;;4.25;;
45490;SDS011;31237;45.586;13.782;2024-03-08T03:10:17;6.80;;;4.35;;
45490;SDS011;31237;45.586;13.782;2024-03-08T03:12:44;7.03;;;4.10;;
45490;SDS011;31237;45.586;13.782;2024-03-08T03:15:11;6.72;;;4.45;;
45490;SDS011;31237;45.586;13.782;2024-03-08T03:17:38;6.88;;;4.38;;
45490;SDS011;31237;45.586;13.782;2024-03-08T03:20:06;6.47;;;4.80;;
45490;SDS011;31237;45.586;13.782;2024-03-08T03:22:38;5.85;;;3.97;;
45490;SDS011;31237;45.586;13.782;2024-03-08T03:25:04;6.55;;;4.70;;
45490;SDS011;31237;45.586;13.782;2024-03-08T03:27:31;6.25;;;4.18;;
45490;SDS011;31237;45.586;13.782;2024-03-08T03:29:57;8.45;;;5.05;;
45490;SDS011;31237;45.586;13.782;2024-03-08T03:32:24;6.57;;;4.18;;
45490;SDS011;31237;45.586;13.782;2024-03-08T03:34:49;7.35;;;4.75;;
45490;SDS011;31237;45.586;13.782;2024-03-08T03:37:21;6.07;;;4.40;;
45490;SDS011;31237;45.586;13.782;2024-03-08T03:39:47;5.85;;;3.80;;
45490;SDS011;31237;45.586;13.782;2024-03-08T03:42:17;7.97;;;4.75;;
45490;SDS011;31237;45.586;13.782;2024-03-08T03:44:44;6.80;;;4.07;;
45490;SDS011;31237;45.586;13.782;2024-03-08T03:47:17;6.00;;;4.20;;
45490;SDS011;31237;45.586;13.782;2024-03-08T03:49:42;6.88;;;4.40;;
45490;SDS011;31237;45.586;13.782;2024-03-08T03:52:08;6.93;;;4.38;;
45490;SDS011;31237;45.586;13.782;2024-03-08T03:54:35;9.20;;;4.55;;
45490;SDS011;31237;45.586;13.782;2024-03-08T03:57:01;7.80;;;5.05;;
45490;SDS011;31237;45.586;13.782;2024-03-08T03:59:28;7.32;;;4.35;;
45490;SDS011;31237;45.586;13.782;2024-03-08T04:01:54;7.53;;;4.90;;
45490;SDS011;31237;45.586;13.782;2024-03-08T04:04:20;8.43;;;5.05;;
45490;SDS011;31237;45.586;13.782;2024-03-08T04:06:46;6.72;;;4.80;;
45490;SDS011;31237;45.586;13.782;2024-03-08T04:09:12;6.70;;;4.50;;
45490;SDS011;31237;45.586;13.782;2024-03-08T04:11:39;8.98;;;4.70;;
45490;SDS011;31237;45.586;13.782;2024-03-08T04:14:05;8.88;;;5.47;;
45490;SDS011;31237;45.586;13.782;2024-03-08T04:16:31;7.20;;;5.03;;
45490;SDS011;31237;45.586;13.782;2024-03-08T04:19:00;5.97;;;4.20;;
45490;SDS011;31237;45.586;13.782;2024-03-08T04:21:29;8.23;;;4.93;;
45490;SDS011;31237;45.586;13.782;2024-03-08T04:23:55;8.10;;;4.90;;
45490;SDS011;31237;45.586;13.782;2024-03-08T04:26:21;8.02;;;4.75;;
45490;SDS011;31237;45.586;13.782;2024-03-08T04:28:47;9.02;;;4.95;;
45490;SDS011;31237;45.586;13.782;2024-03-08T04:31:13;6.78;;;4.45;;
45490;SDS011;31237;45.586;13.782;2024-03-08T04:33:40;7.07;;;4.95;;
45490;SDS011;31237;45.586;13.782;2024-03-08T04:36:06;8.55;;;5.07;;
45490;SDS011;31237;45.586;13.782;2024-03-08T04:38:32;6.60;;;4.53;;
45490;SDS011;31237;45.586;13.782;2024-03-08T04:40:59;7.30;;;4.75;;
45490;SDS011;31237;45.586;13.782;2024-03-08T04:43:27;9.85;;;5.25;;
45490;SDS011;31237;45.586;13.782;2024-03-08T04:45:55;8.90;;;5.80;;
45490;SDS011;31237;45.586;13.782;2024-03-08T04:48:21;8.45;;;5.10;;
45490;SDS011;31237;45.586;13.782;2024-03-08T04:50:46;8.90;;;5.22;;
45490;SDS011;31237;45.586;13.782;2024-03-08T04:53:12;8.32;;;5.20;;
45490;SDS011;31237;45.586;13.782;2024-03-08T04:55:38;6.93;;;4.82;;
45490;SDS011;31237;45.586;13.782;2024-03-08T04:58:04;8.30;;;5.38;;
45490;SDS011;31237;45.586;13.782;2024-03-08T05:00:33;8.60;;;5.32;;
45490;SDS011;31237;45.586;13.782;2024-03-08T05:02:59;7.65;;;5.15;;
45490;SDS011;31237;45.586;13.782;2024-03-08T05:05:24;9.18;;;5.57;;
45490;SDS011;31237;45.586;13.782;2024-03-08T05:07:51;10.90;;;6.05;;
45490;SDS011;31237;45.586;13.782;2024-03-08T05:10:17;9.65;;;5.70;;
45490;SDS011;31237;45.586;13.782;2024-03-08T05:12:45;8.27;;;5.15;;
45490;SDS011;31237;45.586;13.782;2024-03-08T05:15:11;8.18;;;5.60;;
45490;SDS011;31237;45.586;13.782;2024-03-08T05:17:37;9.77;;;6.35;;
45490;SDS011;31237;45.586;13.782;2024-03-08T05:20:03;9.82;;;6.70;;
45490;SDS011;31237;45.586;13.782;2024-03-08T05:22:29;12.77;;;6.10;;
45490;SDS011;31237;45.586;13.782;2024-03-08T05:24:55;11.30;;;6.20;;
45490;SDS011;31237;45.586;13.782;2024-03-08T05:27:20;9.10;;;5.43;;
45490;SDS011;31237;45.586;13.782;2024-03-08T05:29:46;10.30;;;6.15;;
45490;SDS011;31237;45.586;13.782;2024-03-08T05:32:12;9.50;;;5.72;;
45490;SDS011;31237;45.586;13.782;2024-03-08T05:34:39;9.48;;;6.15;;
45490;SDS011;31237;45.586;13.782;2024-03-08T05:37:05;11.63;;;6.68;;
45490;SDS011;31237;45.586;13.782;2024-03-08T05:39:32;10.18;;;5.93;;
45490;SDS011;31237;45.586;13.782;2024-03-08T05:41:58;10.68;;;6.35;;
45490;SDS011;31237;45.586;13.782;2024-03-08T05:44:23;11.38;;;6.38;;
45490;SDS011;31237;45.586;13.782;2024-03-08T05:46:49;10.52;;;5.95;;
45490;SDS011;31237;45.586;13.782;2024-03-08T05:49:15;9.43;;;6.30;;
45490;SDS011;31237;45.586;13.782;2024-03-08T05:51:41;10.80;;;6.78;;
45490;SDS011;31237;45.586;13.782;2024-03-08T05:54:08;12.00;;;6.78;;
45490;SDS011;31237;45.586;13.782;2024-03-08T05:56:38;8.77;;;5.82;;
45490;SDS011;31237;45.586;13.782;2024-03-08T05:59:07;11.00;;;6.38;;
45490;SDS011;31237;45.586;13.782;2024-03-08T06:01:33;10.73;;;6.55;;
45490;SDS011;31237;45.586;13.782;2024-03-08T06:04:01;11.68;;;6.82;;
45490;SDS011;31237;45.586;13.782;2024-03-08T06:06:27;10.90;;;6.28;;
45490;SDS011;31237;45.586;13.782;2024-03-08T06:08:54;12.30;;;7.32;;
45490;SDS011;31237;45.586;13.782;2024-03-08T06:11:21;10.18;;;6.35;;
45490;SDS011;31237;45.586;13.782;2024-03-08T06:13:47;10.68;;;6.70;;
45490;SDS011;31237;45.586;13.782;2024-03-08T06:16:15;9.68;;;5.90;;
45490;SDS011;31237;45.586;13.782;2024-03-08T06:18:41;10.00;;;6.10;;
45490;SDS011;31237;45.586;13.782;2024-03-08T06:21:06;12.13;;;7.13;;
45490;SDS011;31237;45.586;13.782;2024-03-08T06:23:34;10.90;;;6.28;;
45490;SDS011;31237;45.586;13.782;2024-03-08T06:26:06;11.35;;;6.18;;
45490;SDS011;31237;45.586;13.782;2024-03-08T06:28:33;10.50;;;6.28;;
45490;SDS011;31237;45.586;13.782;2024-03-08T06:31:00;13.75;;;6.43;;
45490;SDS011;31237;45.586;13.782;2024-03-08T06:33:26;12.05;;;6.13;;
45490;SDS011;31237;45.586;13.782;2024-03-08T06:35:53;11.60;;;6.55;;
45490;SDS011;31237;45.586;13.782;2024-03-08T06:38:25;11.23;;;6.55;;
45490;SDS011;31237;45.586;13.782;2024-03-08T06:40:52;9.43;;;5.90;;
45490;SDS011;31237;45.586;13.782;2024-03-08T06:43:18;10.68;;;6.45;;
45490;SDS011;31237;45.586;13.782;2024-03-08T06:45:47;10.77;;;6.18;;
45490;SDS011;31237;45.586;13.782;2024-03-08T06:48:16;11.10;;;6.70;;
45490;SDS011;31237;45.586;13.782;2024-03-08T06:50:45;10.68;;;6.40;;
45490;SDS011;31237;45.586;13.782;2024-03-08T06:53:12;11.25;;;6.30;;
45490;SDS011;31237;45.586;13.782;2024-03-08T06:55:39;12.07;;;7.05;;
45490;SDS011;31237;45.586;13.782;2024-03-08T06:58:05;12.20;;;6.75;;
45490;SDS011;31237;45.586;13.782;2024-03-08T07:00:35;8.63;;;5.88;;
45490;SDS011;31237;45.586;13.782;2024-03-08T07:03:01;11.38;;;6.60;;
45490;SDS011;31237;45.586;13.782;2024-03-08T07:05:28;12.02;;;6.63;;
45490;SDS011;31237;45.586;13.782;2024-03-08T07:07:54;12.88;;;7.10;;
45490;SDS011;31237;45.586;13.782;2024-03-08T07:10:20;12.05;;;7.00;;
45490;SDS011;31237;45.586;13.782;2024-03-08T07:12:49;11.48;;;7.05;;
45490;SDS011;31237;45.586;13.782;2024-03-08T07:15:15;10.63;;;6.88;;
45490;SDS011;31237;45.586;13.782;2024-03-08T07:17:44;10.57;;;6.20;;
45490;SDS011;31237;45.586;13.782;2024-03-08T07:20:11;10.90;;;6.00;;
45490;SDS011;31237;45.586;13.782;2024-03-08T07:22:38;10.15;;;6.40;;
45490;SDS011;31237;45.586;13.782;2024-03-08T07:25:05;10.25;;;5.70;;
45490;SDS011;31237;45.586;13.782;2024-03-08T07:27:52;10.18;;;6.05;;
45490;SDS011;31237;45.586;13.782;2024-03-08T07:30:23;11.20;;;6.70;;
45490;SDS011;31237;45.586;13.782;2024-03-08T07:33:08;10.50;;;6.38;;
45490;SDS011;31237;45.586;13.782;2024-03-08T07:35:38;10.68;;;7.05;;
45490;SDS011;31237;45.586;13.782;2024-03-08T07:38:05;10.75;;;5.90;;
45490;SDS011;31237;45.586;13.782;2024-03-08T07:40:36;12.65;;;7.80;;
45490;SDS011;31237;45.586;13.782;2024-03-08T07:43:09;11.43;;;6.45;;
45490;SDS011;31237;45.586;13.782;2024-03-08T07:45:39;12.73;;;7.13;;
45490;SDS011;31237;45.586;13.782;2024-03-08T07:48:05;10.55;;;6.38;;
45490;SDS011;31237;45.586;13.782;2024-03-08T07:50:36;12.18;;;7.60;;
45490;SDS011;31237;45.586;13.782;2024-03-08T07:53:04;10.88;;;6.45;;
45490;SDS011;31237;45.586;13.782;2024-03-08T07:55:31;11.23;;;6.45;;
45490;SDS011;31237;45.586;13.782;2024-03-08T07:57:58;10.52;;;6.72;;
45490;SDS011;31237;45.586;13.782;2024-03-08T08:00:24;9.27;;;5.60;;
45490;SDS011;31237;45.586;13.782;2024-03-08T08:02:52;11.00;;;6.70;;
45490;SDS011;31237;45.586;13.782;2024-03-08T08:05:18;10.45;;;6.32;;
45490;SDS011;31237;45.586;13.782;2024-03-08T08:07:45;11.30;;;6.47;;
45490;SDS011;31237;45.586;13.782;2024-03-08T08:10:11;11.40;;;6.38;;
45490;SDS011;31237;45.586;13.782;2024-03-08T08:12:47;10.95;;;6.60;;
45490;SDS011;31237;45.586;13.782;2024-03-08T08:15:13;10.02;;;5.97;;
45490;SDS011;31237;45.586;13.782;2024-03-08T08:17:43;12.65;;;6.75;;
45490;SDS011;31237;45.586;13.782;2024-03-08T08:20:10;9.52;;;6.15;;
45490;SDS011;31237;45.586;13.782;2024-03-08T08:22:40;10.38;;;6.53;;
45490;SDS011;31237;45.586;13.782;2024-03-08T08:25:08;11.68;;;6.32;;
45490;SDS011;31237;45.586;13.782;2024-03-08T08:27:38;10.40;;;6.15;;
45490;SDS011;31237;45.586;13.782;2024-03-08T08:30:10;8.80;;;6.05;;
45490;SDS011;31237;45.586;13.782;2024-03-08T08:32:37;11.20;;;6.65;;
45490;SDS011;31237;45.586;13.782;2024-03-08T08:35:07;11.70;;;6.00;;
45490;SDS011;31237;45.586;13.782;2024-03-08T08:37:40;10.27;;;6.50;;
45490;SDS011;31237;45.586;13.782;2024-03-08T08:40:06;9.25;;;5.72;;
45490;SDS011;31237;45.586;13.782;2024-03-08T08:42:39;11.18;;;6.88;;
45490;SDS011;31237;45.586;13.782;2024-03-08T08:45:05;9.15;;;5.47;;
45490;SDS011;31237;45.586;13.782;2024-03-08T08:47:37;9.43;;;5.95;;
45490;SDS011;31237;45.586;13.782;2024-03-08T08:50:03;9.77;;;6.00;;
45490;SDS011;31237;45.586;13.782;2024-03-08T08:52:30;9.65;;;5.90;;
45490;SDS011;31237;45.586;13.782;2024-03-08T08:54:57;10.57;;;5.78;;
45490;SDS011;31237;45.586;13.782;2024-03-08T08:57:23;8.73;;;5.78;;
45490;SDS011;31237;45.586;13.782;2024-03-08T08:59:49;8.68;;;5.15;;
45490;SDS011;31237;45.586;13.782;2024-03-08T09:02:15;9.45;;;5.30;;
45490;SDS011;31237;45.586;13.782;2024-03-08T09:04:42;11.10;;;5.60;;
45490;SDS011;31237;45.586;13.782;2024-03-08T09:07:08;11.77;;;5.45;;
45490;SDS011;31237;45.586;13.782;2024-03-08T09:09:34;8.73;;;5.53;;
45490;SDS011;31237;45.586;13.782;2024-03-08T09:12:01;7.80;;;5.03;;
45490;SDS011;31237;45.586;13.782;2024-03-08T09:14:27;8.35;;;5.03;;
45490;SDS011;31237;45.586;13.782;2024-03-08T09:16:52;8.65;;;5.43;;
45490;SDS011;31237;45.586;13.782;2024-03-08T09:19:18;8.45;;;5.53;;
45490;SDS011;31237;45.586;13.782;2024-03-08T09:21:50;8.45;;;5.55;;
45490;SDS011;31237;45.586;13.782;2024-03-08T09:24:16;8.88;;;5.90;;
45490;SDS011;31237;45.586;13.782;2024-03-08T09:26:42;7.72;;;5.07;;
45490;SDS011;31237;45.586;13.782;2024-03-08T09:29:08;8.60;;;5.32;;
45490;SDS011;31237;45.586;13.782;2024-03-08T09:31:35;8.80;;;4.93;;
45490;SDS011;31237;45.586;13.782;2024-03-08T09:34:03;9.60;;;5.88;;
45490;SDS011;31237;45.586;13.782;2024-03-08T09:36:29;7.82;;;5.60;;
45490;SDS011;31237;45.586;13.782;2024-03-08T09:38:57;8.10;;;4.78;;
45490;SDS011;31237;45.586;13.782;2024-03-08T09:41:23;7.32;;;4.90;;
45490;SDS011;31237;45.586;13.782;2024-03-08T09:43:49;8.15;;;5.00;;
45490;SDS011;31237;45.586;13.782;2024-03-08T09:46:14;8.68;;;5.65;;
45490;SDS011;31237;45.586;13.782;2024-03-08T09:48:44;7.88;;;4.70;;
45490;SDS011;31237;45.586;13.782;2024-03-08T09:51:12;8.32;;;5.13;;
45490;SDS011;31237;45.586;13.782;2024-03-08T09:53:40;8.23;;;4.85;;
45490;SDS011;31237;45.586;13.782;2024-03-08T09:56:08;8.18;;;4.68;;
45490;SDS011;31237;45.586;13.782;2024-03-08T09:58:35;7.43;;;4.72;;
45490;SDS011;31237;45.586;13.782;2024-03-08T10:01:07;9.43;;;5.68;;
45490;SDS011;31237;45.586;13.782;2024-03-08T10:03:34;9.25;;;4.60;;
45490;SDS011;31237;45.586;13.782;2024-03-08T10:06:01;11.27;;;4.95;;
45490;SDS011;31237;45.586;13.782;2024-03-08T10:08:27;7.10;;;4.78;;
45490;SDS011;31237;45.586;13.782;2024-03-08T10:10:55;6.80;;;4.40;;
45490;SDS011;31237;45.586;13.782;2024-03-08T10:13:24;7.60;;;5.05;;
45490;SDS011;31237;45.586;13.782;2024-03-08T10:15:54;7.47;;;4.50;;
45490;SDS011;31237;45.586;13.782;2024-03-08T10:18:22;7.07;;;4.55;;
45490;SDS011;31237;45.586;13.782;2024-03-08T10:23:32;6.50;;;4.47;;
45490;SDS011;31237;45.586;13.782;2024-03-08T10:26:12;6.25;;;4.13;;
45490;SDS011;31237;45.586;13.782;2024-03-08T10:28:41;7.97;;;4.70;;
45490;SDS011;31237;45.586;13.782;2024-03-08T10:31:08;7.25;;;4.15;;
45490;SDS011;31237;45.586;13.782;2024-03-08T10:33:36;8.25;;;4.40;;
45490;SDS011;31237;45.586;13.782;2024-03-08T10:36:05;7.53;;;4.53;;
45490;SDS011;31237;45.586;13.782;2024-03-08T10:38:35;7.22;;;4.03;;
45490;SDS011;31237;45.586;13.782;2024-03-08T10:41:05;7.72;;;4.20;;
45490;SDS011;31237;45.586;13.782;2024-03-08T10:43:38;8.93;;;4.57;;
45490;SDS011;31237;45.586;13.782;2024-03-08T10:46:30;7.07;;;4.32;;
45490;SDS011;31237;45.586;13.782;2024-03-08T10:49:16;6.20;;;4.10;;
45490;SDS011;31237;45.586;13.782;2024-03-08T10:54:11;10.13;;;4.43;;
45490;SDS011;31237;45.586;13.782;2024-03-08T10:56:38;8.27;;;4.90;;
45490;SDS011;31237;45.586;13.782;2024-03-08T10:59:05;7.45;;;4.60;;
45490;SDS011;31237;45.586;13.782;2024-03-08T11:01:33;7.28;;;4.47;;
45490;SDS011;31237;45.586;13.782;2024-03-08T11:04:00;7.03;;;4.75;;
45490;SDS011;31237;45.586;13.782;2024-03-08T11:06:30;7.03;;;4.72;;
45490;SDS011;31237;45.586;13.782;2024-03-08T11:09:03;7.83;;;4.77;;
45490;SDS011;31237;45.586;13.782;2024-03-08T11:11:42;7.63;;;5.00;;
45490;SDS011;31237;45.586;13.782;2024-03-08T11:14:42;7.22;;;4.53;;
45490;SDS011;31237;45.586;13.782;2024-03-08T11:17:08;7.30;;;4.45;;
45490;SDS011;31237;45.586;13.782;2024-03-08T11:19:33;7.13;;;4.22;;
45490;SDS011;31237;45.586;13.782;2024-03-08T11:22:03;7.82;;;4.90;;
45490;SDS011;31237;45.586;13.782;2024-03-08T11:24:36;6.93;;;4.35;;
45490;SDS011;31237;45.586;13.782;2024-03-08T11:27:06;6.22;;;4.50;;
45490;SDS011;31237;45.586;13.782;2024-03-08T11:29:35;6.53;;;4.90;;
45490;SDS011;31237;45.586;13.782;2024-03-08T11:32:14;7.00;;;5.00;;
45490;SDS011;31237;45.586;13.782;2024-03-08T11:34:50;7.80;;;5.13;;
45490;SDS011;31237;45.586;13.782;2024-03-08T11:37:19;10.57;;;6.38;;
45490;SDS011;31237;45.586;13.782;2024-03-08T11:42:15;7.90;;;5.40;;
45490;SDS011;31237;45.586;13.782;2024-03-08T11:44:43;9.32;;;5.75;;
45490;SDS011;31237;45.586;13.782;2024-03-08T11:47:11;8.82;;;5.75;;
45490;SDS011;31237;45.586;13.782;2024-03-08T11:49:37;7.65;;;5.50;;
45490;SDS011;31237;45.586;13.782;2024-03-08T11:52:09;8.00;;;5.55;;
45490;SDS011;31237;45.586;13.782;2024-03-08T11:54:37;9.32;;;5.78;;
45490;SDS011;31237;45.586;13.782;2024-03-08T11:57:04;9.38;;;5.82;;
45490;SDS011;31237;45.586;13.782;2024-03-08T11:59:30;8.85;;;5.97;;
45490;SDS011;31237;45.586;13.782;2024-03-08T12:01:58;8.95;;;6.07;;
45490;SDS011;31237;45.586;13.782;2024-03-08T12:04:29;9.98;;;5.75;;
45490;SDS011;31237;45.586;13.782;2024-03-08T12:07:00;9.75;;;6.18;;
45490;SDS011;31237;45.586;13.782;2024-03-08T12:09:28;9.35;;;6.20;;
45490;SDS011;31237;45.586;13.782;2024-03-08T12:11:54;9.32;;;6.07;;
45490;SDS011;31237;45.586;13.782;2024-03-08T12:14:21;9.55;;;6.18;;
45490;SDS011;31237;45.586;13.782;2024-03-08T12:16:50;10.65;;;5.60;;
45490;SDS011;31237;45.586;13.782;2024-03-08T12:19:17;9.65;;;6.18;;
45490;SDS011;31237;45.586;13.782;2024-03-08T12:21:43;11.65;;;6.35;;
45490;SDS011;31237;45.586;13.782;2024-03-08T12:24:16;11.30;;;6.30;;
45490;SDS011;31237;45.586;13.782;2024-03-08T12:26:46;9.43;;;5.90;;
45490;SDS011;31237;45.586;13.782;2024-03-08T12:31:53;9.50;;;5.53;;
45490;SDS011;31237;45.586;13.782;2024-03-08T12:34:20;6.88;;;5.10;;
45490;SDS011;31237;45.586;13.782;2024-03-08T12:36:50;7.90;;;5.93;;
45490;SDS011;31237;45.586;13.782;2024-03-08T12:39:19;10.77;;;5.82;;
45490;SDS011;31237;45.586;13.782;2024-03-08T12:41:52;7.75;;;5.72;;
45490;SDS011;31237;45.586;13.782;2024-03-08T12:44:19;8.80;;;5.70;;
45490;SDS011;31237;45.586;13.782;2024-03-08T12:46:50;7.97;;;5.63;;
45490;SDS011;31237;45.586;13.782;2024-03-08T12:49:16;8.55;;;5.22;;
45490;SDS011;31237;45.586;13.782;2024-03-08T12:51:45;7.43;;;5.25;;
45490;SDS011;31237;45.586;13.782;2024-03-08T12:54:11;8.40;;;5.38;;
45490;SDS011;31237;45.586;13.782;2024-03-08T12:56:37;7.55;;;5.28;;
45490;SDS011;31237;45.586;13.782;2024-03-08T12:59:05;8.27;;;5.60;;
45490;SDS011;31237;45.586;13.782;2024-03-08T13:01:33;7.70;;;5.20;;
45490;SDS011;31237;45.586;13.782;2024-03-08T13:03:59;6.65;;;4.90;;
45490;SDS011;31237;45.586;13.782;2024-03-08T13:06:28;8.43;;;5.40;;
45490;SDS011;31237;45.586;13.782;2024-03-08T13:08:56;7.30;;;5.20;;
45490;SDS011;31237;45.586;13.782;2024-03-08T13:11:23;7.07;;;4.80;;
45490;SDS011;31237;45.586;13.782;2024-03-08T13:13:50;6.57;;;4.53;;
45490;SDS011;31237;45.586;13.782;2024-03-08T13:16:19;7.97;;;5.28;;
45490;SDS011;31237;45.586;13.782;2024-03-08T13:18:45;8.93;;;4.93;;
45490;SDS011;31237;45.586;13.782;2024-03-08T13:21:13;8.30;;;5.18;;
45490;SDS011;31237;45.586;13.782;2024-03-08T13:23:43;7.97;;;5.20;;
45490;SDS011;31237;45.586;13.782;2024-03-08T13:26:14;8.80;;;5.68;;
45490;SDS011;31237;45.586;13.782;2024-03-08T13:28:42;8.27;;;5.80;;
45490;SDS011;31237;45.586;13.782;2024-03-08T13:31:08;7.78;;;5.13;;
45490;SDS011;31237;45.586;13.782;2024-03-08T13:33:37;9.02;;;5.57;;
45490;SDS011;31237;45.586;13.782;2024-03-08T13:36:11;7.78;;;5.35;;
45490;SDS011;31237;45.586;13.782;2024-03-08T13:38:44;7.03;;;5.05;;
45490;SDS011;31237;45.586;13.782;2024-03-08T13:41:11;8.35;;;5.05;;
45490;SDS011;31237;45.586;13.782;2024-03-08T13:43:39;8.52;;;4.97;;
45490;SDS011;31237;45.586;13.782;2024-03-08T13:46:08;7.43;;;5.43;;
45490;SDS011;31237;45.586;13.782;2024-03-08T13:48:35;7.15;;;4.47;;
45490;SDS011;31237;45.586;13.782;2024-03-08T13:51:02;6.63;;;4.40;;
45490;SDS011;31237;45.586;13.782;2024-03-08T13:53:32;8.65;;;4.75;;
45490;SDS011;31237;45.586;13.782;2024-03-08T13:56:00;6.32;;;3.95;;
45490;SDS011;31237;45.586;13.782;2024-03-08T13:58:30;7.60;;;4.85;;
45490;SDS011;31237;45.586;13.782;2024-03-08T14:00:56;6.88;;;4.45;;
45490;SDS011;31237;45.586;13.782;2024-03-08T14:03:22;6.30;;;4.10;;
45490;SDS011;31237;45.586;13.782;2024-03-08T14:05:49;6.05;;;4.35;;
45490;SDS011;31237;45.586;13.782;2024-03-08T14:08:15;7.25;;;4.97;;
45490;SDS011;31237;45.586;13.782;2024-03-08T14:10:42;6.72;;;4.45;;
45490;SDS011;31237;45.586;13.782;2024-03-08T14:13:11;11.07;;;4.85;;
45490;SDS011;31237;45.586;13.782;2024-03-08T14:15:38;5.90;;;4.00;;
45490;SDS011;31237;45.586;13.782;2024-03-08T14:18:07;5.82;;;4.32;;
45490;SDS011;31237;45.586;13.782;2024-03-08T14:20:33;7.20;;;4.57;;
45490;SDS011;31237;45.586;13.782;2024-03-08T14:22:59;7.55;;;4.72;;
45490;SDS011;31237;45.586;13.782;2024-03-08T14:25:24;7.13;;;4.53;;
45490;SDS011;31237;45.586;13.782;2024-03-08T14:27:51;5.57;;;4.10;;
45490;SDS011;31237;45.586;13.782;2024-03-08T14:30:29;5.80;;;3.85;;
45490;SDS011;31237;45.586;13.782;2024-03-08T14:33:01;6.60;;;4.20;;
45490;SDS011;31237;45.586;13.782;2024-03-08T14:35:27;6.75;;;4.90;;
45490;SDS011;31237;45.586;13.782;2024-03-08T14:37:54;6.32;;;4.32;;
45490;SDS011;31237;45.586;13.782;2024-03-08T14:40:22;6.82;;;4.40;;
45490;SDS011;31237;45.586;13.782;2024-03-08T14:42:49;6.72;;;4.55;;
45490;SDS011;31237;45.586;13.782;2024-03-08T14:45:18;6.63;;;4.72;;